Time;durP1;ratioP1;P1;durP2;ratioP2;P2;SDS_P1;SDS_P2;PMS_P1;PMS_P2;Temp;Humidity;BMP_temperature;BMP_pressure;BME280_temperature;BME280_humidity;BME280_pressure;Samples;Min_cycle;Max_cycle;Signal;HPM_P1;HPM_P2
2022/06/17 00:01:05;;;;;;;15.10;13.60;;;;;;;;;;4883465;29;20049;-79
2022/06/17 00:03:32;;;;;;;16.88;13.90;;;;;;;;;;4877728;29;20056;-78
2022/06/17 00:05:59;;;;;;;17.92;14.60;;;;;;;;;;4870432;29;20053;-75
2022/06/17 00:08:28;;;;;;;15.93;13.10;;;;;;;;;;4883274;29;20053;-75
2022/06/17 00:10:54;;;;;;;15.82;14.00;;;;;;;;;;4864303;29;20052;-75
2022/06/17 00:13:20;;;;;;;16.85;13.77;;;;;;;;;;4876275;29;20083;-76
2022/06/17 00:15:47;;;;;;;18.23;14.43;;;;;;;;;;4879662;29;20566;-76
2022/06/17 00:18:17;;;;;;;17.27;13.95;;;;;;;;;;4879178;29;20037;-76
2022/06/17 00:20:43;;;;;;;18.02;14.50;;;;;;;;;;4863330;29;20736;-77
2022/06/17 00:23:13;;;;;;;20.27;14.32;;;;;;;;;;4880129;29;21081;-76
2022/06/17 00:25:40;;;;;;;16.10;13.63;;;;;;;;;;4879684;29;20048;-78
2022/06/17 00:28:10;;;;;;;17.00;15.18;;;;;;;;;;4884903;29;20488;-79
2022/06/17 00:30:36;;;;;;;19.42;15.70;;;;;;;;;;4877126;29;20052;-78
2022/06/17 00:33:03;;;;;;;17.83;14.95;;;;;;;;;;4862608;29;20048;-80
2022/06/17 00:35:31;;;;;;;17.05;15.27;;;;;;;;;;4882529;29;20100;-76
2022/06/17 00:37:58;;;;;;;18.42;15.23;;;;;;;;;;4879118;29;20150;-81
2022/06/17 00:40:26;;;;;;;18.13;16.15;;;;;;;;;;4877180;29;20175;-81
2022/06/17 00:42:52;;;;;;;21.13;17.55;;;;;;;;;;4875996;29;20045;-78
2022/06/17 00:45:30;;;;;;;19.25;16.83;;;;;;;;;;4879815;29;21793;-80
2022/06/17 00:48:15;;;;;;;21.58;17.17;;;;;;;;;;4884551;29;20107;-76
2022/06/17 00:50:47;;;;;;;20.67;18.25;;;;;;;;;;4880004;29;20044;-81
2022/06/17 00:53:19;;;;;;;24.10;18.77;;;;;;;;;;4879025;29;20108;-76
2022/06/17 00:56:01;;;;;;;22.63;18.27;;;;;;;;;;4877012;29;20045;-79
2022/06/17 00:58:30;;;;;;;25.75;20.45;;;;;;;;;;4864238;29;20455;-80
2022/06/17 01:00:58;;;;;;;26.67;19.83;;;;;;;;;;4861196;29;20585;-79
2022/06/17 01:03:26;;;;;;;22.65;19.02;;;;;;;;;;4873476;29;20501;-81
2022/06/17 01:05:55;;;;;;;23.75;18.45;;;;;;;;;;4880555;29;20421;-79
2022/06/17 01:11:14;;;;;;;21.42;18.60;;;;;;;;;;4884099;29;20045;-81
2022/06/17 01:13:41;;;;;;;22.80;18.63;;;;;;;;;;4887422;29;20041;-79
2022/06/17 01:16:08;;;;;;;21.42;19.00;;;;;;;;;;4891568;29;20497;-80
2022/06/17 01:18:37;;;;;;;23.83;19.58;;;;;;;;;;4902586;29;20610;-80
2022/06/17 01:21:11;;;;;;;22.30;18.30;;;;;;;;;;4907873;29;20037;-82
2022/06/17 01:23:37;;;;;;;21.70;17.92;;;;;;;;;;4890665;29;20063;-80
2022/06/17 01:26:04;;;;;;;24.23;19.27;;;;;;;;;;4880762;29;20143;-79
2022/06/17 01:28:30;;;;;;;21.75;19.25;;;;;;;;;;4879600;29;20072;-79
2022/06/17 01:30:59;;;;;;;23.85;18.40;;;;;;;;;;4885373;29;20029;-79
2022/06/17 01:33:30;;;;;;;19.33;17.25;;;;;;;;;;4875026;29;20059;-77
2022/06/17 01:35:59;;;;;;;20.30;17.75;;;;;;;;;;4875073;29;20040;-78
2022/06/17 01:38:26;;;;;;;19.67;17.20;;;;;;;;;;4877329;29;20056;-81
2022/06/17 01:40:54;;;;;;;20.30;18.20;;;;;;;;;;4876179;29;20414;-81
2022/06/17 01:43:21;;;;;;;20.35;17.73;;;;;;;;;;4874263;29;20049;-82
2022/06/17 01:45:55;;;;;;;28.70;19.15;;;;;;;;;;4878524;29;20037;-77
2022/06/17 01:48:23;;;;;;;21.98;19.17;;;;;;;;;;4867161;29;20083;-78
2022/06/17 01:50:51;;;;;;;19.92;17.77;;;;;;;;;;4880496;29;20040;-76
2022/06/17 01:53:19;;;;;;;23.92;19.00;;;;;;;;;;4879357;29;20068;-78
2022/06/17 01:55:51;;;;;;;21.92;18.70;;;;;;;;;;4874474;29;20044;-76
2022/06/17 01:58:26;;;;;;;22.08;18.98;;;;;;;;;;4877810;29;20140;-75
2022/06/17 02:00:52;;;;;;;25.63;18.83;;;;;;;;;;4869471;29;20048;-77
2022/06/17 02:03:23;;;;;;;23.80;18.65;;;;;;;;;;4874508;29;20057;-75
2022/06/17 02:05:51;;;;;;;22.75;18.02;;;;;;;;;;4869247;29;20716;-76
2022/06/17 02:08:17;;;;;;;21.75;18.73;;;;;;;;;;4878955;29;20492;-77
2022/06/17 02:10:45;;;;;;;20.77;18.58;;;;;;;;;;4885075;29;20408;-78
2022/06/17 02:13:12;;;;;;;22.40;18.80;;;;;;;;;;4879507;29;20040;-78
2022/06/17 02:15:39;;;;;;;25.23;19.60;;;;;;;;;;4878846;29;20059;-77
2022/06/17 02:18:12;;;;;;;22.27;18.52;;;;;;;;;;4880315;29;20401;-76
2022/06/17 02:20:39;;;;;;;22.13;18.55;;;;;;;;;;4861947;29;20083;-75
2022/06/17 02:23:05;;;;;;;22.63;20.23;;;;;;;;;;4879096;29;20093;-79
2022/06/17 02:25:37;;;;;;;22.00;19.27;;;14.20;99.90;;;;;;4855103;29;20048;-80
2022/06/17 02:28:04;;;;;;;22.85;18.27;;;;;;;;;;4879602;29;20045;-79
2022/06/17 02:30:30;;;;;;;21.27;19.08;;;;;;;;;;4888620;29;20519;-79
2022/06/17 02:32:59;;;;;;;23.42;19.27;;;;;;;;;;4881224;29;20164;-81
2022/06/17 02:35:25;;;;;;;23.23;19.17;;;;;;;;;;4884229;29;20083;-79
2022/06/17 02:37:52;;;;;;;22.58;19.50;;;;;;;;;;4869459;29;20061;-80
2022/06/17 02:40:44;;;;;;;21.88;19.08;;;;;;;;;;4880621;29;20136;-80
2022/06/17 02:43:13;;;;;;;26.30;18.90;;;;;;;;;;4878150;29;20067;-81
2022/06/17 02:45:41;;;;;;;21.90;18.85;;;;;;;;;;4882631;29;20580;-81
2022/06/17 02:48:16;;;;;;;25.85;19.83;;;;;;;;;;4886607;29;20052;-82
2022/06/17 02:50:42;;;;;;;23.45;19.27;;;;;;;;;;4886990;29;20059;-79
2022/06/17 02:53:08;;;;;;;23.02;19.20;;;;;;;;;;4871640;29;20059;-80
2022/06/17 02:55:47;;;;;;;22.48;19.27;;;;;;;;;;4886546;29;20119;-82
2022/06/17 02:58:31;;;;;;;28.05;20.33;;;;;;;;;;4887762;29;20535;-76
2022/06/17 03:00:58;;;;;;;22.88;20.48;;;;;;;;;;4891003;29;20489;-81
2022/06/17 03:03:24;;;;;;;25.52;20.45;;;;;;;;;;4892204;29;20047;-79
2022/06/17 03:05:51;;;;;;;25.75;20.20;;;;;;;;;;4891197;29;20131;-75
2022/06/17 03:08:19;;;;;;;24.30;18.58;;;;;;;;;;4889096;29;20524;-78
2022/06/17 03:10:45;;;;;;;25.08;18.80;;;;;;;;;;4878466;29;20560;-78
2022/06/17 03:13:11;;;;;;;28.40;19.65;;;;;;;;;;4873936;29;20049;-80
2022/06/17 03:15:40;;;;;;;23.08;18.80;;;;;;;;;;4891744;29;20049;-80
2022/06/17 03:18:06;;;;;;;24.38;18.50;;;;;;;;;;4892685;29;20040;-80
2022/06/17 03:20:35;;;;;;;23.60;17.38;;;;;;;;;;4893307;29;20104;-80
2022/06/17 03:23:06;;;;;;;20.92;18.73;;;;;;;;;;4890859;29;20059;-82
2022/06/17 03:25:32;;;;;;;19.88;17.77;;;;;;;;;;4893498;29;20049;-76
2022/06/17 03:28:06;;;;;;;21.00;18.58;;;14.20;99.90;;;;;;4892221;29;20528;-80
2022/06/17 03:30:32;;;;;;;;;;;;;;;;;;4891471;29;20412;-80
2022/06/17 03:33:17;;;;;;;19.23;17.23;;;;;;;;;;4892683;29;19923;-79
2022/06/17 03:35:44;;;;;;;26.00;16.27;;;;;;;;;;4884969;29;20052;-78
2022/06/17 03:38:16;;;;;;;19.13;15.60;;;;;;;;;;4860952;29;20501;-79
2022/06/17 03:40:45;;;;;;;19.77;16.05;;;;;;;;;;4890818;29;20087;-80
2022/06/17 03:43:11;;;;;;;18.05;14.98;;;;;;;;;;4889154;29;20048;-79
2022/06/17 03:45:43;;;;;;;19.92;15.68;;;;;;;;;;4890831;29;20041;-79
2022/06/17 03:48:09;;;;;;;20.80;15.70;;;;;;;;;;4887988;29;20066;-78
2022/06/17 03:50:36;;;;;;;16.50;14.35;;;;;;;;;;4889268;29;20076;-76
2022/06/17 03:53:05;;;;;;;16.73;13.50;;;;;;;;;;4870602;29;20044;-76
2022/06/17 03:55:32;;;;;;;21.73;13.15;;;;;;;;;;4873363;29;20404;-79
2022/06/17 03:58:01;;;;;;;15.93;12.25;;;;;;;;;;4890991;29;20056;-75
2022/06/17 04:00:41;;;;;;;15.40;13.50;;;;;;;;;;4890769;29;20040;-76
2022/06/17 04:03:25;;;;;;;14.60;12.15;;;;;;;;;;4888624;29;20048;-75
2022/06/17 04:05:59;;;;;;;13.70;12.40;;;;;;;;;;4872622;29;20051;-76
2022/06/17 04:08:24;;;;;;;;;;;14.60;99.90;;;;;;4891131;29;20096;-76
2022/06/17 04:10:50;;;;;;;15.35;11.18;;;;;;;;;;4889862;29;19927;-76
2022/06/17 04:13:18;;;;;;;19.50;12.52;;;;;;;;;;4892875;29;20139;-76
2022/06/17 04:16:01;;;;;;;16.33;11.02;;;;;;;;;;4874005;29;20135;-78
2022/06/17 04:18:27;;;;;;;14.55;11.05;;;;;;;;;;4875065;29;20506;-75
2022/06/17 04:20:54;;;;;;;15.80;12.50;;;;;;;;;;4899348;29;20419;-77
2022/06/17 04:23:23;;;;;;;14.20;11.15;;;;;;;;;;4899930;29;20067;-80
2022/06/17 04:25:56;;;;;;;14.63;10.88;;;;;;;;;;4898644;29;20073;-81
2022/06/17 04:28:25;;;;;;;16.05;10.80;;;;;;;;;;4900196;29;20072;-77
2022/06/17 04:30:59;;;;;;;15.60;10.63;;;;;;;;;;4905350;29;20084;-81
2022/06/17 04:33:45;;;;;;;14.05;10.35;;;;;;;;;;4906506;29;20045;-80
2022/06/17 04:36:14;;;;;;;14.73;9.93;;;;;;;;;;4894602;29;20078;-80
2022/06/17 04:38:58;;;;;;;15.20;10.50;;;;;;;;;;4891888;29;20053;-78
2022/06/17 04:41:27;;;;;;;16.30;10.60;;;;;;;;;;4890181;29;20421;-80
2022/06/17 04:43:55;;;;;;;12.38;10.02;;;;;;;;;;4890254;29;20040;-81
2022/06/17 04:46:26;;;;;;;15.35;10.20;;;;;;;;;;4888308;29;20043;-79
2022/06/17 04:48:57;;;;;;;17.38;11.18;;;;;;;;;;4891331;29;20048;-79
2022/06/17 04:51:23;;;;;;;10.80;9.70;;;;;;;;;;4889048;29;20044;-78
2022/06/17 04:53:50;;;;;;;14.95;11.13;;;;;;;;;;4886897;29;20492;-79
2022/06/17 04:56:26;;;;;;;13.23;9.95;;;;;;;;;;4889903;29;20096;-79
2022/06/17 04:58:52;;;;;;;12.48;10.15;;;;;;;;;;4891450;29;20051;-80
2022/06/17 05:01:21;;;;;;;15.90;10.68;;;;;;;;;;4890767;29;20535;-81
2022/06/17 05:03:47;;;;;;;15.52;10.93;;;;;;;;;;4890386;29;20071;-80
2022/06/17 05:06:13;;;;;;;12.45;10.95;;;;;;;;;;4887626;29;20072;-79
2022/06/17 05:08:42;;;;;;;14.02;11.55;;;;;;;;;;4874016;29;20513;-82
2022/06/17 05:11:13;;;;;;;13.70;11.55;;;;;;;;;;4874522;29;20556;-81
2022/06/17 05:13:55;;;;;;;14.23;11.75;;;;;;;;;;4890486;29;20044;-82
2022/06/17 05:16:22;;;;;;;16.02;12.32;;;;;;;;;;4865080;29;20060;-81
2022/06/17 05:18:49;;;;;;;13.52;12.23;;;;;;;;;;4889009;29;20041;-80
2022/06/17 05:21:20;;;;;;;14.73;11.93;;;;;;;;;;4865685;29;20044;-80
2022/06/17 05:23:52;;;;;;;17.15;11.57;;;;;;;;;;4869728;29;20045;-77
2022/06/17 05:26:18;;;;;;;16.00;12.07;;;;;;;;;;4869466;29;20055;-78
2022/06/17 05:28:46;;;;;;;20.63;12.27;;;;;;;;;;4889519;29;20529;-81
2022/06/17 05:31:15;;;;;;;16.92;12.00;;;;;;;;;;4887017;29;20055;-80
2022/06/17 05:33:42;;;;;;;14.88;11.73;;;;;;;;;;4885365;29;20051;-79
2022/06/17 05:36:08;;;;;;;23.63;11.40;;;;;;;;;;4883020;29;20056;-76
2022/06/17 05:38:34;;;;;;;19.25;13.27;;;;;;;;;;4884627;29;20193;-79
2022/06/17 05:41:00;;;;;;;17.13;12.30;;;;;;;;;;4868950;29;20466;-80
2022/06/17 05:43:26;;;;;;;19.73;12.18;;;;;;;;;;4861818;29;20057;-79
2022/06/17 05:45:53;;;;;;;18.15;12.40;;;;;;;;;;4863776;29;20470;-80
2022/06/17 05:48:19;;;;;;;22.67;12.55;;;;;;;;;;4868163;29;20083;-79
2022/06/17 05:50:45;;;;;;;14.52;12.40;;;;;;;;;;4867100;29;20037;-79
2022/06/17 05:53:12;;;;;;;16.17;12.40;;;;;;;;;;4863211;29;20056;-80
2022/06/17 05:55:38;;;;;;;16.27;12.05;;;;;;;;;;4864777;29;20387;-80
2022/06/17 05:58:05;;;;;;;15.02;11.48;;;;;;;;;;4865423;29;20037;-79
2022/06/17 06:00:32;;;;;;;15.55;11.50;;;;;;;;;;4864242;29;20096;-79
2022/06/17 06:02:59;;;;;;;16.50;11.57;;;;;;;;;;4886083;29;20124;-81
2022/06/17 06:05:26;;;;;;;16.17;12.00;;;;;;;;;;4864146;29;20177;-80
2022/06/17 06:07:53;;;;;;;12.65;10.90;;;;;;;;;;4864653;29;20045;-79
2022/06/17 06:10:19;;;;;;;12.07;10.88;;;;;;;;;;4864757;29;20404;-81
2022/06/17 06:12:57;;;;;;;14.63;11.85;;;;;;;;;;4871348;29;20045;-79
2022/06/17 06:15:29;;;;;;;16.20;11.10;;;;;;;;;;4861970;29;20053;-79
2022/06/17 06:17:55;;;;;;;15.93;10.98;;;;;;;;;;4883929;29;20169;-76
2022/06/17 06:20:22;;;;;;;17.13;12.18;;;;;;;;;;4861105;29;20091;-81
2022/06/17 06:22:49;;;;;;;16.00;11.15;;;;;;;;;;4863218;29;20136;-80
2022/06/17 06:25:16;;;;;;;15.98;11.43;;;;;;;;;;4849487;29;20144;-78
2022/06/17 06:27:42;;;;;;;17.15;11.95;;;;;;;;;;4867261;29;20041;-77
2022/06/17 06:30:17;;;;;;;17.67;11.48;;;;;;;;;;4872459;29;20041;-80
2022/06/17 06:33:13;;;;;;;14.63;11.57;;;;;;;;;;4870327;29;20061;-78
2022/06/17 06:35:39;;;;;;;15.30;11.35;;;;;;;;;;4854562;29;20063;-77
2022/06/17 06:38:12;;;;;;;15.70;11.55;;;;;;;;;;4874378;29;20049;-81
2022/06/17 06:40:39;;;;;;;17.70;12.18;;;;;;;;;;4881481;29;20564;-78
2022/06/17 06:43:11;;;;;;;14.73;11.73;;;;;;;;;;4878553;29;20038;-79
2022/06/17 06:45:37;;;;;;;15.50;12.07;;;;;;;;;;4874865;29;20053;-80
2022/06/17 06:48:40;;;;;;;17.27;12.07;;;;;;;;;;4871244;29;20104;-79
2022/06/17 06:51:21;;;;;;;16.70;11.85;;;;;;;;;;4870891;29;20432;-81
2022/06/17 06:53:48;;;;;;;15.73;11.80;;;;;;;;;;4871597;29;20091;-80
2022/06/17 06:56:14;;;;;;;20.80;11.48;;;;;;;;;;4876239;29;20052;-81
2022/06/17 06:58:47;;;;;;;15.77;11.30;;;;;;;;;;4874727;29;20045;-81
2022/06/17 07:01:26;;;;;;;14.43;10.23;;;;;;;;;;4864267;29;20393;-79
2022/06/17 07:03:52;;;;;;;19.38;11.23;;;;;;;;;;4867870;29;21559;-80
2022/06/17 07:06:18;;;;;;;22.00;10.65;;;;;;;;;;4865497;29;20662;-81
2022/06/17 07:08:44;;;;;;;15.32;10.13;;;;;;;;;;4869350;29;20218;-78
2022/06/17 07:11:10;;;;;;;13.70;10.68;;;;;;;;;;4871327;29;20041;-77
2022/06/17 07:13:40;;;;;;;15.20;10.45;;;;;;;;;;4870669;29;20057;-81
2022/06/17 07:16:09;;;;;;;15.70;10.52;;;;;;;;;;4869885;29;20053;-78
2022/06/17 07:18:36;;;;;;;13.40;9.77;;;;;;;;;;4872567;29;20039;-81
2022/06/17 07:21:03;;;;;;;19.90;10.90;;;;;;;;;;4872272;29;20084;-78
2022/06/17 07:23:33;;;;;;;13.95;9.65;;;;;;;;;;4873590;29;20053;-79
2022/06/17 07:28:41;;;;;;;16.33;9.45;;;;;;;;;;5016326;23;20067;-76
2022/06/17 07:31:07;;;;;;;12.02;10.35;;;;;;;;;;4909149;29;20056;-81
2022/06/17 07:33:36;;;;;;;12.15;9.90;;;;;;;;;;4911610;29;20071;-80
2022/06/17 07:36:07;;;;;;;11.45;8.82;;;18.60;99.90;;;;;;4900281;29;20090;-81
2022/06/17 07:41:23;;;;;;;17.48;8.07;;;;;;;;;;4911708;29;20048;-80
2022/06/17 07:43:50;;;;;;;11.95;7.68;;;;;;;;;;4890844;29;20051;-81
2022/06/17 07:46:16;;;;;;;10.32;7.53;;;;;;;;;;4907744;29;20420;-79
2022/06/17 07:48:42;;;;;;;8.60;6.85;;;;;;;;;;4907901;29;20131;-81
2022/06/17 07:51:09;;;;;;;11.77;7.13;;;;;;;;;;4907960;29;20051;-78
2022/06/17 07:53:42;;;;;;;12.02;6.88;;;;;;;;;;4910283;29;20508;-78
2022/06/17 07:56:13;;;;;;;9.23;6.90;;;;;;;;;;4911687;29;20044;-76
2022/06/17 07:58:39;;;;;;;11.15;6.80;;;;;;;;;;4912794;29;20040;-76
2022/06/17 08:01:06;;;;;;;7.18;5.95;;;;;;;;;;4893582;29;20535;-75
2022/06/17 08:03:34;;;;;;;10.02;7.18;;;;;;;;;;4912495;29;20743;-76
2022/06/17 08:06:02;;;;;;;9.45;6.40;;;;;;;;;;4877727;29;20060;-76
2022/06/17 08:08:29;;;;;;;9.10;5.82;;;;;;;;;;4911772;29;20075;-76
2022/06/17 08:10:58;;;;;;;6.47;5.47;;;19.60;99.90;;;;;;4910264;29;20033;-77
2022/06/17 08:13:24;;;;;;;9.55;5.75;;;;;;;;;;4916876;29;20056;-79
2022/06/17 08:15:51;;;;;;;9.10;5.97;;;;;;;;;;4911222;29;20516;-80
2022/06/17 08:18:17;;;;;;;10.73;6.00;;;;;;;;;;4910118;29;20079;-79
2022/06/17 08:20:43;;;;;;;13.98;6.68;;;;;;;;;;4877615;29;20084;-78
2022/06/17 08:23:10;;;;;;;7.07;5.70;;;;;;;;;;4891985;29;20036;-81
2022/06/17 08:25:37;;;;;;;8.45;5.70;;;;;;;;;;4895787;29;20146;-79
2022/06/17 08:28:04;;;;;;;12.20;6.05;;;;;;;;;;4910027;29;20089;-79
2022/06/17 08:30:33;;;;;;;5.97;5.38;;;20.90;99.90;;;;;;4912380;29;20048;-80
2022/06/17 08:32:59;;;;;;;7.57;6.07;;;;;;;;;;4901500;29;20047;-80
2022/06/17 08:35:40;;;;;;;7.88;5.78;;;;;;;;;;4894715;29;20056;-81
2022/06/17 08:38:06;;;;;;;8.13;5.53;;;;;;;;;;4900180;29;20044;-80
2022/06/17 08:40:38;;;;;;;13.48;6.00;;;;;;;;;;4911659;29;20092;-78
2022/06/17 08:43:15;;;;;;;8.27;5.57;;;;;;;;;;4912593;29;20052;-78
2022/06/17 08:45:46;;;;;;;7.30;5.38;;;;;;;;;;4909650;29;20047;-79
2022/06/17 08:48:12;;;;;;;11.80;5.90;;;;;;;;;;4911492;29;20126;-77
2022/06/17 08:50:49;;;;;;;9.38;4.55;;;;;;;;;;4897640;29;20044;-80
2022/06/17 08:53:21;;;;;;;9.80;5.50;;;;;;;;;;4927746;29;20059;-80
2022/06/17 08:56:02;;;;;;;7.32;5.00;;;;;;;;;;4913321;29;20088;-82
2022/06/17 08:58:47;;;;;;;14.23;5.70;;;;;;;;;;4918914;29;20039;-79
2022/06/17 09:01:13;;;;;;;10.30;5.35;;;;;;;;;;4905070;29;20040;-78
2022/06/17 09:04:06;;;;;;;9.30;5.78;;;;;;;;;;4915858;29;20071;-79
2022/06/17 09:06:44;;;;;;;8.15;5.15;;;;;;;;;;4890970;29;20496;-80
2022/06/17 09:09:29;;;;;;;6.53;4.90;;;;;;;;;;4893850;29;20048;-81
2022/06/17 09:12:18;;;;;;;8.85;5.10;;;22.70;99.90;;;;;;4893952;29;20094;-81
2022/06/17 09:15:11;;;;;;;7.00;4.50;;;;;;;;;;4912020;29;20056;-80
2022/06/17 09:17:40;;;;;;;6.40;4.60;;;;;;;;;;4898310;29;20513;-77
2022/06/17 09:20:09;;;;;;;8.48;4.95;;;;;;;;;;4909206;29;20457;-80
2022/06/17 09:22:38;;;;;;;10.02;4.70;;;;;;;;;;4894904;29;20052;-82
2022/06/17 09:25:13;;;;;;;13.55;4.82;;;;;;;;;;4906348;29;20041;-80
2022/06/17 09:27:41;;;;;;;5.63;4.50;;;;;;;;;;4894694;29;20056;-77
2022/06/17 09:30:33;;;;;;;7.43;5.18;;;;;;;;;;4911408;29;20116;-77
2022/06/17 09:32:59;;;;;;;7.55;5.07;;;;;;;;;;4886408;29;20533;-78
2022/06/17 09:35:25;;;;;;;6.70;5.10;;;;;;;;;;4910369;29;20043;-77
2022/06/17 09:37:54;;;;;;;8.07;5.05;;;;;;;;;;4908504;29;20106;-77
2022/06/17 09:40:20;;;;;;;8.50;4.78;;;;;;;;;;4910291;29;20131;-75
2022/06/17 09:42:56;;;;;;;9.70;5.13;;;;;;;;;;4890574;29;20056;-78
2022/06/17 09:45:31;;;;;;;8.43;5.13;;;;;;;;;;4906988;29;20116;-75
2022/06/17 09:48:01;;;;;;;7.53;5.32;;;;;;;;;;4907014;29;20226;-77
2022/06/17 09:50:33;;;;;;;8.88;4.88;;;;;;;;;;4907520;29;20072;-78
2022/06/17 09:53:03;;;;;;;9.40;5.07;;;;;;;;;;4909525;29;20493;-77
2022/06/17 09:55:34;;;;;;;8.93;5.47;;;;;;;;;;4908505;29;20110;-77
2022/06/17 09:58:06;;;;;;;7.13;4.40;;;;;;;;;;4909589;29;20044;-76
2022/06/17 10:00:44;;;;;;;6.22;4.40;;;;;;;;;;4910985;29;20048;-77
2022/06/17 10:03:13;;;;;;;13.98;5.00;;;;;;;;;;4902964;29;20063;-77
2022/06/17 10:05:39;;;;;;;5.32;4.13;;;;;;;;;;4909235;29;20130;-75
2022/06/17 10:08:29;;;;;;;7.05;4.68;;;23.00;99.90;;;;;;4909141;29;20084;-79
2022/06/17 10:11:14;;;;;;;10.43;5.00;;;;;;;;;;4897829;29;20156;-79
2022/06/17 10:14:17;;;;;;;7.57;4.65;;;22.80;99.90;;;;;;4910585;29;20468;-79
2022/06/17 10:19:49;;;;;;;7.70;4.82;;;;;;;;;;4910712;29;20143;-79
2022/06/17 10:22:15;;;;;;;9.23;5.05;;;;;;;;;;4911513;29;20044;-80
2022/06/17 10:25:00;;;;;;;17.15;5.13;;;;;;;;;;4909108;29;20036;-79
2022/06/17 10:27:45;;;;;;;7.13;4.90;;;;;;;;;;4893431;29;20056;-80
2022/06/17 10:30:13;;;;;;;5.90;5.18;;;;;;;;;;4911495;29;20066;-83
2022/06/17 10:32:42;;;;;;;10.68;5.53;;;;;;;;;;4923081;29;20438;-82
2022/06/17 10:35:14;;;;;;;13.13;5.60;;;;;;;;;;4898166;29;20040;-81
2022/06/17 10:37:40;;;;;;;9.98;4.90;;;;;;;;;;4895064;29;20048;-80
2022/06/17 10:40:08;;;;;;;7.65;5.20;;;;;;;;;;4910782;29;20062;-81
2022/06/17 10:42:34;;;;;;;8.05;5.38;;;;;;;;;;4890136;29;20037;-81
2022/06/17 10:45:01;;;;;;;7.70;5.72;;;;;;;;;;4913288;29;20044;-81
2022/06/17 10:47:46;;;;;;;7.38;5.55;;;;;;;;;;4913084;29;20048;-83
2022/06/17 10:50:18;;;;;;;9.30;6.28;;;;;;;;;;4891257;29;20052;-81
2022/06/17 10:52:47;;;;;;;7.88;6.10;;;;;;;;;;4905104;29;20114;-81
2022/06/17 10:55:24;;;;;;;11.65;6.00;;;22.80;99.90;;;;;;4890019;29;20096;-82
2022/06/17 10:58:09;;;;;;;8.23;5.68;;;;;;;;;;4907459;29;20433;-82
2022/06/17 11:00:42;;;;;;;8.93;6.25;;;23.20;99.90;;;;;;4905729;29;20536;-82
2022/06/17 11:03:15;;;;;;;8.23;6.07;;;;;;;;;;4893610;29;20564;-81
2022/06/17 11:05:41;;;;;;;6.03;5.40;;;;;;;;;;4914415;29;20044;-77
2022/06/17 11:08:20;;;;;;;8.20;5.28;;;;;;;;;;4891775;29;20040;-78
2022/06/17 11:10:51;;;;;;;8.05;5.53;;;;;;;;;;4908990;29;20449;-76
2022/06/17 11:13:17;;;;;;;9.82;5.93;;;;;;;;;;4908330;29;20078;-75
2022/06/17 11:15:45;;;;;;;9.52;6.07;;;;;;;;;;4913727;29;20914;-77
2022/06/17 11:18:31;;;;;;;8.50;5.93;;;;;;;;;;4910787;29;20148;-77
2022/06/17 11:20:59;;;;;;;9.45;5.95;;;;;;;;;;4911256;29;20040;-82
2022/06/17 11:23:57;;;;;;;9.00;5.57;;;24.50;99.90;;;;;;4913405;29;20075;-76
2022/06/17 11:26:27;;;;;;;15.63;6.20;;;;;;;;;;4879738;29;20113;-79
2022/06/17 11:29:04;;;;;;;7.90;5.50;;;;;;;;;;4913014;29;20056;-76
2022/06/17 11:31:35;;;;;;;8.23;5.32;;;;;;;;;;4901659;29;20123;-78
2022/06/17 11:34:14;;;;;;;8.55;5.95;;;;;;;;;;4921796;29;20059;-78
2022/06/17 11:36:58;;;;;;;7.53;5.18;;;;;;;;;;4913352;29;20378;-82
2022/06/17 11:39:28;;;;;;;15.07;5.10;;;;;;;;;;4909601;29;20150;-79
2022/06/17 11:41:55;;;;;;;9.23;4.95;;;;;;;;;;4910381;29;20095;-77
2022/06/17 11:44:24;;;;;;;14.40;5.20;;;;;;;;;;4892894;29;20040;-76
2022/06/17 11:47:02;;;;;;;9.00;4.63;;;25.70;99.90;;;;;;4899278;29;20434;-76
2022/06/17 11:49:33;;;;;;;10.10;5.07;;;;;;;;;;4913659;29;20110;-77
2022/06/17 11:52:01;;;;;;;7.80;4.53;;;;;;;;;;4911721;29;20044;-79
2022/06/17 11:54:35;;;;;;;7.30;4.90;;;;;;;;;;4915711;29;20052;-78
2022/06/17 11:57:16;;;;;;;9.75;4.68;;;;;;;;;;4901278;29;20056;-79
2022/06/17 11:59:48;;;;;;;8.55;4.05;;;;;;;;;;4901999;29;20044;-76
2022/06/17 12:02:24;;;;;;;12.30;4.50;;;;;;;;;;4924024;29;20103;-81
2022/06/17 12:04:51;;;;;;;6.47;4.28;;;;;;;;;;4921784;29;20303;-81
2022/06/17 12:07:29;;;;;;;10.45;4.13;;;;;;;;;;4932502;29;20040;-80
2022/06/17 12:10:02;;;;;;;8.30;4.60;;;;;;;;;;4930466;29;20103;-80
2022/06/17 12:12:29;;;;;;;10.43;4.70;;;;;;;;;;4899655;29;20395;-81
2022/06/17 12:15:19;;;;;;;5.35;4.38;;;;;;;;;;4912675;29;20052;-83
2022/06/17 12:17:45;;;;;;;6.40;4.18;;;;;;;;;;4902993;29;20060;-81
2022/06/17 12:20:18;;;;;;;6.38;3.85;;;;;;;;;;4891206;29;20412;-82
2022/06/17 12:22:48;;;;;;;13.05;4.75;;;;;;;;;;4889540;29;20079;-80
2022/06/17 12:25:23;;;;;;;7.50;4.32;;;;;;;;;;4891031;29;20052;-81
2022/06/17 12:27:53;;;;;;;8.02;4.40;;;;;;;;;;4906425;29;20150;-83
2022/06/17 12:30:28;;;;;;;8.93;4.50;;;;;;;;;;4906753;29;20052;-80
2022/06/17 12:33:03;;;;;;;8.93;4.40;;;;;;;;;;4907229;29;20047;-83
2022/06/17 12:35:46;;;;;;;6.97;4.50;;;;;;;;;;4905038;29;20140;-80
2022/06/17 12:38:18;;;;;;;11.02;4.47;;;;;;;;;;4890283;29;20530;-82
2022/06/17 12:40:49;;;;;;;9.52;4.03;;;;;;;;;;4907638;29;20048;-82
2022/06/17 12:43:30;;;;;;;5.93;4.45;;;;;;;;;;4889820;29;20560;-82
2022/06/17 12:46:04;;;;;;;9.20;4.30;;;;;;;;;;4889601;29;20501;-80
2022/06/17 12:48:39;;;;;;;6.68;4.43;;;;;;;;;;4903414;29;20047;-83
2022/06/17 12:54:24;;;;;;;5.55;4.40;;;;;;;;;;4906876;29;20091;-79
2022/06/17 12:57:00;;;;;;;8.93;4.63;;;;;;;;;;4910097;29;20040;-82
2022/06/17 12:59:26;;;;;;;;;;;;;;;;;;4910819;29;20048;-81
2022/06/17 13:01:53;;;;;;;6.88;4.43;;;;;;;;;;4873282;29;20387;-78
2022/06/17 13:04:30;;;;;;;6.95;4.57;;;;;;;;;;4890588;29;20044;-82
2022/06/17 13:06:56;;;;;;;6.75;4.10;;;;;;;;;;4905889;29;20433;-81
2022/06/17 13:09:33;;;;;;;8.27;4.35;;;;;;;;;;4890815;29;20051;-77
2022/06/17 13:12:06;;;;;;;8.75;4.80;;;;;;;;;;4906462;29;20052;-82
2022/06/17 13:14:38;;;;;;;11.68;4.72;;;;;;;;;;4906057;29;20504;-79
2022/06/17 13:17:04;;;;;;;7.55;4.13;;;;;;;;;;4907197;29;20523;-79
2022/06/17 13:19:30;;;;;;;8.73;5.10;;;;;;;;;;4905306;29;20524;-81
2022/06/17 13:22:02;;;;;;;9.73;4.47;;;;;;;;;;4906451;29;20047;-81
2022/06/17 13:24:28;;;;;;;7.07;4.13;;;;;;;;;;4906354;29;20500;-76
2022/06/17 13:26:59;;;;;;;7.38;4.30;;;;;;;;;;4909045;29;20059;-76
2022/06/17 13:29:31;;;;;;;7.93;4.22;;;;;;;;;;4918879;29;20040;-77
2022/06/17 13:32:15;;;;;;;6.93;3.58;;;25.70;99.90;;;;;;4910922;29;20059;-77
2022/06/17 13:34:44;;;;;;;5.25;3.92;;;;;;;;;;4915811;29;20048;-78
2022/06/17 13:37:18;;;;;;;6.88;4.20;;;;;;;;;;4917490;29;20071;-79
2022/06/17 13:39:56;;;;;;;7.50;3.85;;;;;;;;;;4895135;29;20066;-77
2022/06/17 13:42:23;;;;;;;7.88;4.22;;;;;;;;;;4907449;29;20036;-77
2022/06/17 13:45:02;;;;;;;7.68;3.70;;;;;;;;;;4909509;29;20052;-77
2022/06/17 13:47:49;;;;;;;5.40;3.40;;;;;;;;;;4915033;29;20039;-77
2022/06/17 13:50:24;;;;;;;5.35;3.90;;;;;;;;;;4894628;29;20062;-77
2022/06/17 13:53:09;;;;;;;7.43;3.42;;;;;;;;;;4916754;29;20979;-78
2022/06/17 13:55:35;;;;;;;7.18;4.20;;;;;;;;;;4924961;29;20051;-78
2022/06/17 13:58:01;;;;;;;7.05;3.55;;;;;;;;;;4902389;29;20048;-77
2022/06/17 14:00:40;;;;;;;7.47;3.28;;;;;;;;;;4913771;29;20051;-82
2022/06/17 14:03:11;;;;;;;4.45;2.83;;;;;;;;;;4910058;29;20062;-81
2022/06/17 14:05:43;;;;;;;5.97;3.25;;;;;;;;;;4928052;29;20071;-80
2022/06/17 14:08:16;;;;;;;6.90;3.38;;;;;;;;;;4915649;29;20052;-83
2022/06/17 14:10:43;;;;;;;5.45;3.55;;;;;;;;;;4891598;29;20080;-81
2022/06/17 14:13:18;;;;;;;6.35;3.50;;;;;;;;;;4924885;29;20539;-82
2022/06/17 14:16:06;;;;;;;8.43;3.20;;;28.00;99.90;;;;;;4920207;29;20055;-80
2022/06/17 14:18:42;;;;;;;3.83;3.30;;;;;;;;;;4923403;29;20535;-83
2022/06/17 14:21:12;;;;;;;4.13;3.25;;;;;;;;;;4922157;29;20508;-79
2022/06/17 14:23:45;;;;;;;4.20;3.00;;;;;;;;;;4903587;29;20051;-78
2022/06/17 14:26:33;;;;;;;6.82;3.53;;;;;;;;;;4919020;29;20059;-82
2022/06/17 14:29:01;;;;;;;12.20;3.67;;;;;;;;;;4875868;29;20041;-81
2022/06/17 14:31:34;;;;;;;6.50;3.40;;;;;;;;;;4891522;29;20052;-81
2022/06/17 14:34:07;;;;;;;5.18;3.22;;;;;;;;;;4893216;29;20052;-82
2022/06/17 14:36:45;;;;;;;4.53;3.40;;;;;;;;;;4893560;29;20505;-82
2022/06/17 14:39:23;;;;;;;4.57;3.10;;;;;;;;;;4893032;29;20186;-82
2022/06/17 14:42:02;;;;;;;8.57;3.63;;;;;;;;;;4878017;29;20045;-82
2022/06/17 14:44:34;;;;;;;5.10;3.10;;;;;;;;;;4891520;29;20111;-80
2022/06/17 14:47:21;;;;;;;5.35;3.20;;;;;;;;;;4888581;29;20048;-82
2022/06/17 14:49:56;;;;;;;6.63;3.85;;;;;;;;;;4876155;29;20056;-83
2022/06/17 14:52:22;;;;;;;4.93;3.28;;;;;;;;;;4888451;29;20052;-81
2022/06/17 14:55:02;;;;;;;7.72;3.55;;;;;;;;;;4890189;29;20033;-81
2022/06/17 14:57:30;;;;;;;7.35;3.33;;;;;;;;;;4887094;29;20037;-80
2022/06/17 15:00:22;;;;;;;4.10;3.15;;;;;;;;;;4889193;29;20548;-81
2022/06/17 15:02:50;;;;;;;4.68;3.58;;;;;;;;;;4885074;29;20892;-82